首页
METAR-TAF:

METAR-TAF

机场 :

通孔廷国际机场

德古斯加巴, 洪都拉斯

纬度: 14-03N, 经度: 087-13W, 海拔: 994米

当前天气观测

该预报发布于1小时和0分钟前的13:00 UTC
风速7节,风向西北
温度 20°C
湿度 78%
气压 1021 hPa
能见度10公里或以上
少量云层高于1400英尺
散云层高于3000英尺

METAR: MHTG 141300Z 32007KT 9999 FEW014 SCT030 20/16 Q1021 A3015 NOSIG

时间: 08:00 (14:00 UTC)

预报

该预报发布于3小时和20分钟前的10:40 UTC
预报有效从14日的 12点(UTC)到 15日的 12点(UTC)
风速8节,风向北转东北
能见度10公里或以上
少量云层高于1200英尺
多云层高于2400英尺
短暂存在
从 14日的 13点(UTC)到 14日的 17点(UTC)
能見度: 7000
附近有阵雨
成为
从 14日的 17点(UTC)到 14日的 19点(UTC)
风速10节,风向北转东北,有时为20节阵风
能见度10公里或以上
散云层高于3200英尺
少量云层高于3600英尺, 塔状积云.
成为
从 14日的 23点(UTC)到 15日的 01点(UTC)
风速7节,风向北转东北
散云层高于2800英尺

TAF: MHTG 141040Z 1412/1512 02008KT 9999 FEW012 BKN024 TX31/1421Z TN18/1512Z TEMPO 1413/1417 7000 VCSH BECMG 1417/1419 03010G20KT 9999 NSW SCT032 FEW036TCU BECMG 1423/1501 03007KT SCT028

超过4000个机场的气象观测和天气预报(METAR&TAF报告)。

可查询的气象台以黄色和红色小点在地图上表示。

将鼠标移到小点上方,可查看气象台名称。

然后点击查看天气观测和预报。

如需切换地图:点击带黑十字的绿色按钮放大地图;点击带横线的绿色按钮缩小地图;或者点击绿色箭头查看邻近地区的地图。


METAR-TAF: